createdAt,value
2022-12-25T00:00:55.205Z,4.63
2022-12-25T00:03:22.023Z,5.28
2022-12-25T00:05:48.898Z,4.38
2022-12-25T00:08:15.731Z,3.88
2022-12-25T00:10:45.232Z,4.40
2022-12-25T00:13:12.541Z,4.53
2022-12-25T00:15:41.179Z,4.63
2022-12-25T00:18:07.979Z,4.68
2022-12-25T00:20:34.664Z,4.93
2022-12-25T00:23:01.369Z,5.05
2022-12-25T00:25:28.089Z,4.47
2022-12-25T00:27:54.806Z,5.30
2022-12-25T00:30:21.499Z,3.83
2022-12-25T00:32:48.136Z,4.13
2022-12-25T00:35:14.977Z,4.60
2022-12-25T00:37:41.672Z,4.75
2022-12-25T00:40:09.121Z,4.68
2022-12-25T00:42:35.820Z,4.55
2022-12-25T00:45:02.592Z,4.78
2022-12-25T00:47:29.756Z,4.47
2022-12-25T00:49:56.544Z,4.70
2022-12-25T00:52:23.235Z,4.60
2022-12-25T00:54:49.891Z,4.15
2022-12-25T00:57:16.517Z,4.28
2022-12-25T00:59:43.124Z,4.50
2022-12-25T01:02:25.266Z,4.05
2022-12-25T01:04:54.964Z,4.80
2022-12-25T01:07:23.975Z,4.53
2022-12-25T01:10:09.282Z,4.55
2022-12-25T01:12:39.558Z,4.68
2022-12-25T01:15:08.674Z,3.63
2022-12-25T01:17:35.682Z,3.75
2022-12-25T01:20:02.539Z,3.75
2022-12-25T01:22:29.192Z,3.55
2022-12-25T01:24:55.829Z,4.00
2022-12-25T01:27:24.123Z,3.53
2022-12-25T01:29:50.803Z,3.80
2022-12-25T01:32:17.488Z,3.30
2022-12-25T01:34:48.142Z,3.78
2022-12-25T01:37:17.209Z,3.55
2022-12-25T01:39:44.050Z,3.28
2022-12-25T01:42:22.070Z,3.10
2022-12-25T01:44:48.702Z,4.05
2022-12-25T01:47:17.455Z,3.27
2022-12-25T01:49:48.043Z,2.90
2022-12-25T01:52:23.814Z,2.70
2022-12-25T01:54:57.671Z,3.00
2022-12-25T01:57:28.944Z,2.90
2022-12-25T01:59:57.744Z,2.53
2022-12-25T02:02:24.957Z,2.85
2022-12-25T02:05:18.024Z,3.05
2022-12-25T02:07:47.054Z,2.65
2022-12-25T02:10:14.129Z,2.80
2022-12-25T02:12:41.417Z,2.97
2022-12-25T02:15:17.746Z,3.33
2022-12-25T02:17:56.065Z,2.88
2022-12-25T02:20:33.200Z,2.60
2022-12-25T02:23:18.545Z,2.78
2022-12-25T02:25:45.212Z,2.22
2022-12-25T02:28:41.030Z,2.13
2022-12-25T02:31:17.817Z,2.78
2022-12-25T02:34:04.234Z,2.40
2022-12-25T02:36:46.566Z,2.60
2022-12-25T02:39:50.407Z,2.58
2022-12-25T02:43:19.238Z,2.55
2022-12-25T02:46:18.483Z,2.13
2022-12-25T02:49:19.900Z,2.22
2022-12-25T02:52:15.469Z,2.20
2022-12-25T02:55:06.310Z,2.22
2022-12-25T02:57:58.435Z,2.22
2022-12-25T03:00:44.217Z,1.98
2022-12-25T03:03:33.542Z,2.30
2022-12-25T03:06:22.334Z,2.20
2022-12-25T03:08:53.786Z,2.10
2022-12-25T03:11:32.607Z,2.20
2022-12-25T03:14:23.695Z,2.30
2022-12-25T03:16:56.720Z,2.08
2022-12-25T03:19:47.140Z,2.17
2022-12-25T03:22:37.868Z,2.47
2022-12-25T03:25:23.695Z,1.60
2022-12-25T03:27:53.366Z,2.20
2022-12-25T03:30:40.806Z,1.77
2022-12-25T03:33:46.698Z,1.98
2022-12-25T03:36:32.071Z,1.98
2022-12-25T03:39:37.328Z,1.48
2022-12-25T03:42:25.007Z,1.77
2022-12-25T03:48:11.601Z,1.55
2022-12-25T03:51:15.318Z,1.85
2022-12-25T03:54:04.909Z,1.67
2022-12-25T03:56:51.612Z,1.70
2022-12-25T03:59:41.479Z,2.17
2022-12-25T04:02:27.183Z,2.35
2022-12-25T04:05:13.121Z,2.60
2022-12-25T04:07:58.292Z,2.30
2022-12-25T04:10:43.618Z,2.35
2022-12-25T04:13:28.740Z,2.72
2022-12-25T04:16:14.139Z,2.60
2022-12-25T04:18:59.374Z,2.42
2022-12-25T04:21:44.776Z,2.88
2022-12-25T04:24:30.092Z,2.72
2022-12-25T04:27:15.308Z,2.55
2022-12-25T04:30:00.520Z,2.85
2022-12-25T04:32:45.681Z,2.40
2022-12-25T04:35:30.932Z,2.15
2022-12-25T04:37:57.571Z,2.63
2022-12-25T04:40:24.238Z,2.20
2022-12-25T04:42:52.239Z,2.15
2022-12-25T04:47:45.810Z,2.00
2022-12-25T04:50:12.458Z,2.38
2022-12-25T04:52:40.982Z,2.17
2022-12-25T04:55:09.132Z,2.00
2022-12-25T04:57:37.354Z,2.30
2022-12-25T05:00:05.830Z,2.20
2022-12-25T05:02:32.725Z,2.33
2022-12-25T05:04:59.526Z,1.70
2022-12-25T05:07:26.200Z,2.63
2022-12-25T05:09:52.886Z,2.63
2022-12-25T05:12:19.701Z,2.15
2022-12-25T05:14:46.673Z,1.98
2022-12-25T05:17:13.620Z,2.43
2022-12-25T05:19:40.258Z,2.22
2022-12-25T05:22:06.890Z,1.98
2022-12-25T05:24:33.662Z,2.45
2022-12-25T05:27:00.347Z,2.65
2022-12-25T05:29:26.976Z,1.90
2022-12-25T05:31:53.694Z,2.58
2022-12-25T05:34:20.305Z,2.13
2022-12-25T05:36:46.933Z,2.08
2022-12-25T05:39:13.603Z,2.58
2022-12-25T05:41:40.650Z,2.60
2022-12-25T05:44:07.364Z,2.63
2022-12-25T05:46:34.074Z,2.05
2022-12-25T05:49:00.785Z,2.25
2022-12-25T05:51:27.496Z,2.33
2022-12-25T05:53:54.147Z,2.60
2022-12-25T05:56:20.803Z,2.30
2022-12-25T05:58:47.454Z,2.10
2022-12-25T06:01:17.723Z,1.90
2022-12-25T06:03:44.493Z,1.88
2022-12-25T06:06:11.708Z,1.85
2022-12-25T06:08:38.346Z,2.17
2022-12-25T06:11:07.074Z,1.75
2022-12-25T06:13:34.984Z,1.85
2022-12-25T06:18:37.093Z,1.70
2022-12-25T06:21:08.544Z,1.42
2022-12-25T06:23:36.626Z,1.58
2022-12-25T06:26:09.396Z,1.98
2022-12-25T06:28:36.565Z,2.33
2022-12-25T06:31:15.882Z,2.70
2022-12-25T06:33:43.092Z,2.55
2022-12-25T06:36:13.024Z,2.05
2022-12-25T06:38:39.937Z,1.42
2022-12-25T06:41:08.538Z,2.13
2022-12-25T06:43:35.372Z,1.70
2022-12-25T06:46:04.234Z,1.42
2022-12-25T06:48:32.731Z,1.70
2022-12-25T06:50:59.632Z,2.25
2022-12-25T06:55:53.778Z,1.58
2022-12-25T06:58:20.455Z,1.10
2022-12-25T07:00:47.126Z,1.35
2022-12-25T07:03:20.463Z,2.20
2022-12-25T07:05:47.357Z,2.72
2022-12-25T07:08:14.178Z,2.00
2022-12-25T07:10:40.987Z,1.85
2022-12-25T07:13:07.688Z,1.70
2022-12-25T07:15:34.357Z,2.22
2022-12-25T07:18:01.016Z,1.98
2022-12-25T07:20:27.665Z,1.58
2022-12-25T07:22:54.321Z,1.58
2022-12-25T07:25:21.021Z,1.50
2022-12-25T07:27:47.687Z,5.60
2022-12-25T07:30:14.556Z,7.50
2022-12-25T07:32:44.333Z,2.88
2022-12-25T07:35:15.640Z,1.63
2022-12-25T07:37:42.489Z,2.35
2022-12-25T07:40:09.805Z,1.85
2022-12-25T07:42:36.425Z,1.75
2022-12-25T07:45:03.583Z,2.05
2022-12-25T07:47:30.254Z,4.60
2022-12-25T07:49:56.948Z,5.90
2022-12-25T07:52:23.618Z,2.60
2022-12-25T07:54:50.265Z,1.83
2022-12-25T07:57:16.912Z,2.20
2022-12-25T07:59:43.567Z,1.60
2022-12-25T08:02:11.510Z,1.52
2022-12-25T08:04:38.293Z,2.00
2022-12-25T08:07:05.019Z,6.18
2022-12-25T08:09:31.706Z,4.45
2022-12-25T08:11:58.386Z,14.05
2022-12-25T08:14:25.075Z,6.80
2022-12-25T08:16:51.927Z,8.25
2022-12-25T08:19:18.584Z,4.15
2022-12-25T08:21:45.225Z,3.72
2022-12-25T08:24:11.945Z,3.00
2022-12-25T08:26:38.616Z,2.85
2022-12-25T08:29:05.315Z,3.30
2022-12-25T08:31:34.199Z,2.60
2022-12-25T08:34:03.022Z,2.38
2022-12-25T08:36:30.075Z,3.22
2022-12-25T08:39:02.677Z,3.13
2022-12-25T08:41:29.982Z,2.60
2022-12-25T08:43:56.929Z,2.95
2022-12-25T08:46:24.225Z,4.40
2022-12-25T08:48:51.007Z,4.00
2022-12-25T08:51:20.101Z,4.40
2022-12-25T08:53:48.887Z,7.85
2022-12-25T08:56:16.390Z,4.22
2022-12-25T08:58:43.330Z,4.13
2022-12-25T09:01:10.477Z,4.18
2022-12-25T09:03:37.230Z,3.33
2022-12-25T09:06:09.802Z,3.58
2022-12-25T09:08:39.896Z,4.03
2022-12-25T09:11:14.751Z,5.18
2022-12-25T09:13:41.812Z,5.15
2022-12-25T09:16:11.601Z,6.43
2022-12-25T09:18:38.909Z,7.10
2022-12-25T09:21:07.707Z,7.43
2022-12-25T09:23:34.707Z,8.38
2022-12-25T09:26:03.778Z,8.00
2022-12-25T09:28:30.575Z,7.57
2022-12-25T09:30:57.363Z,7.13
2022-12-25T09:33:24.811Z,7.15
2022-12-25T09:35:59.823Z,6.40
2022-12-25T09:38:28.391Z,6.18
2022-12-25T09:41:01.575Z,5.55
2022-12-25T09:43:32.792Z,6.32
2022-12-25T09:46:02.313Z,5.88
2022-12-25T09:48:33.023Z,5.57
2022-12-25T09:51:05.487Z,6.60
2022-12-25T09:53:38.900Z,6.32
2022-12-25T09:56:16.788Z,4.85
2022-12-25T09:58:44.029Z,5.40
2022-12-25T10:01:29.042Z,5.57
2022-12-25T10:04:25.898Z,4.95
2022-12-25T10:07:03.839Z,4.70
2022-12-25T10:09:51.475Z,3.67
2022-12-25T10:15:15.172Z,3.75
2022-12-25T10:18:03.159Z,3.97
2022-12-25T10:20:46.944Z,3.92
2022-12-25T10:23:22.662Z,4.45
2022-12-25T10:25:51.517Z,4.00
2022-12-25T10:28:36.174Z,3.67
2022-12-25T10:31:16.307Z,4.55
2022-12-25T10:33:43.061Z,4.43
2022-12-25T10:36:09.764Z,4.38
2022-12-25T10:38:39.461Z,4.43
2022-12-25T10:41:22.105Z,4.53
2022-12-25T10:43:57.460Z,4.93
2022-12-25T10:46:26.505Z,4.57
2022-12-25T10:48:56.792Z,5.60
2022-12-25T10:51:32.448Z,6.40
2022-12-25T10:54:00.935Z,7.85
2022-12-25T10:56:27.692Z,6.85
2022-12-25T10:59:20.423Z,8.95
2022-12-25T11:01:51.052Z,9.57
2022-12-25T11:04:28.632Z,9.57
2022-12-25T11:07:07.899Z,6.95
2022-12-25T11:09:34.945Z,10.20
2022-12-25T11:12:02.233Z,19.63
2022-12-25T11:14:30.622Z,13.68
2022-12-25T11:17:08.517Z,16.42
2022-12-25T11:22:05.116Z,9.27
2022-12-25T11:24:33.287Z,7.55
2022-12-25T11:27:04.453Z,6.07
2022-12-25T11:29:39.907Z,7.22
2022-12-25T11:32:16.960Z,8.00
2022-12-25T11:34:46.631Z,9.68
2022-12-25T11:37:20.407Z,6.47
2022-12-25T11:39:47.100Z,7.25
2022-12-25T11:42:26.375Z,6.80
2022-12-25T11:45:18.099Z,5.55
2022-12-25T11:47:53.561Z,6.13
2022-12-25T11:50:36.543Z,7.32
2022-12-25T11:53:09.941Z,6.80
2022-12-25T11:55:45.390Z,8.40
2022-12-25T11:58:23.130Z,5.68
2022-12-25T12:03:33.555Z,6.15
2022-12-25T12:06:06.740Z,8.63
2022-12-25T12:08:35.320Z,10.88
2022-12-25T12:11:26.777Z,11.00
2022-12-25T12:13:59.179Z,8.52
2022-12-25T12:16:26.019Z,9.10
2022-12-25T12:18:52.759Z,8.57
2022-12-25T12:21:25.399Z,8.70
2022-12-25T12:23:55.964Z,9.45
2022-12-25T12:26:28.239Z,9.93
2022-12-25T12:28:59.224Z,10.05
2022-12-25T12:31:37.955Z,11.50
2022-12-25T12:34:05.519Z,11.50
2022-12-25T12:36:36.479Z,11.35
2022-12-25T12:39:06.024Z,9.57
2022-12-25T12:41:48.536Z,10.48
2022-12-25T12:44:17.377Z,10.07
2022-12-25T12:46:57.438Z,10.52
2022-12-25T12:49:25.727Z,9.68
2022-12-25T12:52:26.347Z,10.07
2022-12-25T12:55:13.948Z,10.88
2022-12-25T13:00:21.282Z,10.52
2022-12-25T13:03:35.671Z,10.95
2022-12-25T13:06:20.600Z,11.90
2022-12-25T13:08:47.274Z,11.40
2022-12-25T13:11:20.201Z,11.32
2022-12-25T13:13:49.512Z,12.88
2022-12-25T13:16:26.379Z,13.05
2022-12-25T13:18:55.313Z,12.53
2022-12-25T13:21:30.334Z,12.57
2022-12-25T13:24:02.854Z,12.10
2022-12-25T13:26:30.393Z,11.95
2022-12-25T13:28:57.415Z,12.88
2022-12-25T13:31:29.540Z,12.50
2022-12-25T13:34:38.488Z,12.35
2022-12-25T13:37:10.049Z,11.38
2022-12-25T13:39:39.457Z,10.90
2022-12-25T13:42:09.487Z,10.95
2022-12-25T13:44:44.941Z,9.38
2022-12-25T13:47:32.869Z,9.07
2022-12-25T13:50:13.411Z,9.90
2022-12-25T13:52:40.224Z,9.07
2022-12-25T13:55:30.496Z,9.27
2022-12-25T13:58:03.844Z,9.35
2022-12-25T14:00:31.107Z,9.38
2022-12-25T14:02:59.199Z,8.40
2022-12-25T14:05:27.974Z,9.15
2022-12-25T14:07:57.264Z,9.98
2022-12-25T14:10:27.515Z,9.55
2022-12-25T14:12:57.909Z,8.90
2022-12-25T14:15:24.771Z,8.07
2022-12-25T14:17:51.991Z,8.00
2022-12-25T14:20:27.329Z,8.55
2022-12-25T14:22:56.879Z,7.15
2022-12-25T14:25:35.295Z,8.07
2022-12-25T14:28:08.306Z,8.05
2022-12-25T14:30:36.301Z,7.82
2022-12-25T14:33:03.393Z,8.80
2022-12-25T14:35:30.476Z,8.23
2022-12-25T14:38:00.339Z,8.82
2022-12-25T14:40:32.590Z,7.90
2022-12-25T14:43:05.385Z,8.05
2022-12-25T14:45:34.466Z,7.85
2022-12-25T14:48:04.284Z,7.50
2022-12-25T14:50:37.338Z,10.02
2022-12-25T14:53:06.568Z,10.30
2022-12-25T14:55:33.267Z,11.13
2022-12-25T14:58:05.573Z,10.57
2022-12-25T15:00:36.945Z,9.85
2022-12-25T15:03:08.265Z,11.65
2022-12-25T15:05:39.821Z,12.55
2022-12-25T15:08:12.457Z,13.82
2022-12-25T15:13:28.285Z,10.90
2022-12-25T15:16:03.601Z,10.73
2022-12-25T15:18:38.190Z,11.68
2022-12-25T15:21:05.117Z,11.25
2022-12-25T15:23:31.831Z,39.25
2022-12-25T15:26:00.371Z,16.05
2022-12-25T15:28:27.083Z,13.27
2022-12-25T15:30:53.775Z,26.48
2022-12-25T15:33:20.527Z,13.07
2022-12-25T15:35:47.214Z,11.88
2022-12-25T15:38:13.909Z,11.75
2022-12-25T15:40:41.106Z,15.15
2022-12-25T15:43:20.856Z,12.45
2022-12-25T15:45:54.549Z,13.95
2022-12-25T15:48:21.250Z,11.70
2022-12-25T15:50:47.979Z,11.27
2022-12-25T15:53:14.695Z,12.63
2022-12-25T15:55:41.455Z,12.23
2022-12-25T15:58:13.100Z,11.82
2022-12-25T16:00:39.777Z,11.48
2022-12-25T16:03:06.608Z,15.88
2022-12-25T16:05:33.402Z,13.95
2022-12-25T16:08:00.101Z,55.70
2022-12-25T16:10:26.841Z,28.30
2022-12-25T16:12:53.502Z,14.77
2022-12-25T16:15:20.226Z,19.17
2022-12-25T16:17:46.862Z,12.45
2022-12-25T16:20:13.894Z,13.05
2022-12-25T16:22:40.646Z,14.27
2022-12-25T16:25:13.678Z,14.40
2022-12-25T16:27:42.178Z,14.73
2022-12-25T16:30:11.010Z,16.50
2022-12-25T16:32:38.008Z,16.58
2022-12-25T16:35:05.552Z,20.03
2022-12-25T16:37:32.328Z,19.55
2022-12-25T16:39:59.004Z,17.63
2022-12-25T16:42:25.728Z,16.98
2022-12-25T16:44:52.453Z,14.65
2022-12-25T16:47:19.143Z,13.20
2022-12-25T16:49:45.831Z,14.68
2022-12-25T16:52:12.523Z,13.57
2022-12-25T16:54:39.187Z,14.95
2022-12-25T16:57:05.916Z,17.58
2022-12-25T16:59:33.055Z,13.68
2022-12-25T17:01:59.806Z,15.10
2022-12-25T17:04:27.501Z,13.27
2022-12-25T17:06:54.195Z,14.73
2022-12-25T17:09:20.844Z,13.43
2022-12-25T17:11:47.497Z,16.33
2022-12-25T17:14:14.164Z,15.73
2022-12-25T17:16:40.945Z,13.88
2022-12-25T17:19:17.549Z,13.63
2022-12-25T17:21:46.049Z,13.38
2022-12-25T17:24:13.158Z,13.07
2022-12-25T17:26:41.505Z,12.20
2022-12-25T17:29:08.769Z,12.75
2022-12-25T17:31:35.535Z,12.65
2022-12-25T17:34:03.466Z,12.48
2022-12-25T17:39:05.440Z,7.60
2022-12-25T17:41:32.253Z,10.75
2022-12-25T17:43:59.157Z,20.05
2022-12-25T17:46:28.433Z,10.77
2022-12-25T17:48:57.157Z,10.65
2022-12-25T17:51:25.765Z,10.90
2022-12-25T17:53:55.445Z,10.30
2022-12-25T17:56:23.310Z,9.35
2022-12-25T17:58:52.016Z,10.90
2022-12-25T18:01:19.265Z,14.40
2022-12-25T18:03:46.654Z,16.05
2022-12-25T18:06:16.350Z,19.80
2022-12-25T18:08:44.341Z,28.02
2022-12-25T18:13:44.740Z,17.50
2022-12-25T18:16:13.168Z,14.18
2022-12-25T18:18:44.087Z,11.82
2022-12-25T18:21:14.607Z,11.40
2022-12-25T18:23:41.404Z,15.60
2022-12-25T18:26:11.827Z,23.55
2022-12-25T18:28:39.023Z,17.10
2022-12-25T18:31:11.414Z,14.43
2022-12-25T18:33:38.255Z,15.93
2022-12-25T18:36:05.622Z,16.58
2022-12-25T18:38:32.529Z,16.30
2022-12-25T18:40:59.614Z,15.85
2022-12-25T18:43:53.185Z,17.17
2022-12-25T18:46:14.195Z,19.25
2022-12-25T18:51:11.189Z,28.48
2022-12-25T18:53:38.656Z,15.02
2022-12-25T18:56:12.440Z,16.45
2022-12-25T18:58:39.580Z,17.05
2022-12-25T19:01:17.182Z,15.55
2022-12-25T19:03:44.884Z,15.80
2022-12-25T19:06:20.003Z,15.45
2022-12-25T19:08:47.044Z,15.60
2022-12-25T19:11:14.109Z,17.53
2022-12-25T19:13:41.348Z,14.80
2022-12-25T19:16:08.296Z,13.45
2022-12-25T19:18:35.247Z,18.33
2022-12-25T19:21:04.021Z,18.40
2022-12-25T19:23:31.392Z,17.05
2022-12-25T19:25:58.094Z,23.92
2022-12-25T19:28:25.193Z,15.93
2022-12-25T19:30:54.937Z,22.45
2022-12-25T19:33:22.790Z,20.13
2022-12-25T19:35:49.857Z,19.10
2022-12-25T19:38:16.629Z,17.47
2022-12-25T19:41:00.256Z,16.50
2022-12-25T19:43:29.750Z,15.38
2022-12-25T19:45:59.366Z,15.90
2022-12-25T19:48:26.105Z,15.68
2022-12-25T19:50:52.748Z,21.27
2022-12-25T19:53:21.470Z,16.13
2022-12-25T19:55:48.112Z,15.45
2022-12-25T19:58:14.924Z,15.70
2022-12-25T20:00:41.878Z,15.45
2022-12-25T20:03:09.283Z,15.10
2022-12-25T20:05:36.385Z,15.63
2022-12-25T20:08:03.908Z,19.27
2022-12-25T20:10:30.873Z,13.18
2022-12-25T20:12:57.533Z,17.02
2022-12-25T20:15:24.300Z,17.40
2022-12-25T20:17:50.991Z,17.27
2022-12-25T20:20:17.764Z,16.88
2022-12-25T20:22:44.459Z,16.67
2022-12-25T20:25:11.878Z,15.55
2022-12-25T20:27:38.625Z,15.60
2022-12-25T20:30:05.956Z,15.32
2022-12-25T20:32:32.628Z,16.42
2022-12-25T20:34:59.261Z,17.67
2022-12-25T20:37:25.970Z,16.58
2022-12-25T20:39:52.616Z,15.68
2022-12-25T20:42:20.305Z,17.95
2022-12-25T20:44:47.097Z,17.10
2022-12-25T20:47:13.794Z,17.08
2022-12-25T20:49:40.446Z,15.98
2022-12-25T20:52:07.453Z,37.83
2022-12-25T20:54:34.137Z,26.40
2022-12-25T20:57:00.797Z,23.90
2022-12-25T20:59:32.042Z,17.88
2022-12-25T21:02:02.143Z,15.48
2022-12-25T21:04:28.966Z,16.20
2022-12-25T21:06:55.589Z,16.27
2022-12-25T21:09:22.270Z,16.55
2022-12-25T21:11:48.904Z,14.70
2022-12-25T21:14:15.552Z,14.30
2022-12-25T21:16:43.862Z,15.90
2022-12-25T21:19:11.165Z,16.38
2022-12-25T21:21:42.652Z,15.70
2022-12-25T21:24:10.357Z,14.82
2022-12-25T21:26:39.162Z,15.60
2022-12-25T21:29:09.477Z,16.27
2022-12-25T21:31:57.025Z,14.13
2022-12-25T21:34:23.683Z,16.02
2022-12-25T21:36:50.311Z,14.05
2022-12-25T21:39:17.303Z,15.43
2022-12-25T21:41:43.964Z,10.63
2022-12-25T21:44:10.925Z,14.38
2022-12-25T21:46:37.578Z,14.70
2022-12-25T21:49:04.316Z,12.43
2022-12-25T21:51:51.761Z,15.93
2022-12-25T21:54:23.351Z,15.75
2022-12-25T21:56:50.080Z,14.63
2022-12-25T21:59:20.419Z,15.57
2022-12-25T22:01:47.832Z,16.67
2022-12-25T22:04:16.846Z,16.30
2022-12-25T22:07:03.195Z,14.23
2022-12-25T22:09:30.107Z,14.23
2022-12-25T22:12:15.655Z,14.20
2022-12-25T22:14:56.775Z,13.43
2022-12-25T22:17:51.284Z,14.23
2022-12-25T22:20:27.693Z,12.48
2022-12-25T22:22:54.625Z,13.18
2022-12-25T22:25:22.322Z,13.45
2022-12-25T22:27:49.907Z,13.85
2022-12-25T22:30:22.130Z,13.05
2022-12-25T22:32:49.752Z,13.35
2022-12-25T22:35:16.942Z,13.50
2022-12-25T22:37:43.855Z,12.45
2022-12-25T22:40:13.989Z,14.23
2022-12-25T22:42:41.439Z,13.52
2022-12-25T22:45:08.722Z,13.60
2022-12-25T22:47:35.637Z,12.45
2022-12-25T22:50:02.312Z,8.85
2022-12-25T22:52:28.992Z,12.63
2022-12-25T22:54:55.658Z,12.35
2022-12-25T22:57:22.429Z,12.25
2022-12-25T22:59:51.953Z,12.45
2022-12-25T23:02:18.857Z,12.05
2022-12-25T23:04:45.687Z,10.73
2022-12-25T23:07:14.496Z,11.95
2022-12-25T23:09:42.719Z,10.55
2022-12-25T23:12:29.565Z,11.82
2022-12-25T23:14:57.042Z,10.88
2022-12-25T23:17:42.408Z,11.88
2022-12-25T23:20:27.797Z,9.95
2022-12-25T23:23:13.177Z,12.90
2022-12-25T23:25:58.406Z,10.43
2022-12-25T23:28:43.630Z,10.77
2022-12-25T23:31:10.317Z,10.88
2022-12-25T23:33:37.005Z,10.30
2022-12-25T23:36:03.843Z,9.63
2022-12-25T23:38:30.524Z,10.25
2022-12-25T23:40:57.140Z,10.10
2022-12-25T23:43:23.801Z,9.48
2022-12-25T23:45:50.487Z,11.60
2022-12-25T23:48:17.108Z,9.15
2022-12-25T23:50:43.816Z,10.50
2022-12-25T23:53:11.056Z,11.10
2022-12-25T23:55:37.830Z,10.05
2022-12-25T23:58:05.092Z,10.95
